sensor_id;sensor_type;location;lat;lon;timestamp;P1;durP1;ratioP1;P2;durP2;ratioP2
48665;SDS011;34452;50.796;4.994;2022-11-20T00:01:15;28.15;;;16.13;;
48665;SDS011;34452;50.796;4.994;2022-11-20T00:03:45;29.15;;;17.63;;
48665;SDS011;34452;50.796;4.994;2022-11-20T00:06:12;23.88;;;16.08;;
48665;SDS011;34452;50.796;4.994;2022-11-20T00:08:40;25.08;;;16.95;;
48665;SDS011;34452;50.796;4.994;2022-11-20T00:11:06;26.40;;;16.35;;
48665;SDS011;34452;50.796;4.994;2022-11-20T00:13:41;29.92;;;17.25;;
48665;SDS011;34452;50.796;4.994;2022-11-20T00:18:35;25.52;;;15.98;;
48665;SDS011;34452;50.796;4.994;2022-11-20T00:21:02;30.25;;;17.05;;
48665;SDS011;34452;50.796;4.994;2022-11-20T00:23:28;28.40;;;17.02;;
48665;SDS011;34452;50.796;4.994;2022-11-20T00:25:54;27.98;;;16.33;;
48665;SDS011;34452;50.796;4.994;2022-11-20T00:28:20;27.77;;;17.10;;
48665;SDS011;34452;50.796;4.994;2022-11-20T00:30:46;26.70;;;15.90;;
48665;SDS011;34452;50.796;4.994;2022-11-20T00:33:11;31.40;;;18.13;;
48665;SDS011;34452;50.796;4.994;2022-11-20T00:35:38;31.80;;;17.67;;
48665;SDS011;34452;50.796;4.994;2022-11-20T00:38:03;31.80;;;17.67;;
48665;SDS011;34452;50.796;4.994;2022-11-20T00:40:29;24.97;;;16.77;;
48665;SDS011;34452;50.796;4.994;2022-11-20T00:42:55;28.13;;;16.77;;
48665;SDS011;34452;50.796;4.994;2022-11-20T00:45:20;26.63;;;16.83;;
48665;SDS011;34452;50.796;4.994;2022-11-20T00:47:46;25.07;;;16.97;;
48665;SDS011;34452;50.796;4.994;2022-11-20T00:50:12;29.85;;;16.83;;
48665;SDS011;34452;50.796;4.994;2022-11-20T00:52:37;27.90;;;18.50;;
48665;SDS011;34452;50.796;4.994;2022-11-20T00:55:03;27.17;;;17.47;;
48665;SDS011;34452;50.796;4.994;2022-11-20T00:57:29;28.20;;;17.05;;
48665;SDS011;34452;50.796;4.994;2022-11-20T00:59:55;29.20;;;17.50;;
48665;SDS011;34452;50.796;4.994;2022-11-20T01:02:20;26.57;;;17.17;;
48665;SDS011;34452;50.796;4.994;2022-11-20T01:04:46;26.63;;;17.13;;
48665;SDS011;34452;50.796;4.994;2022-11-20T01:07:12;28.50;;;17.50;;
48665;SDS011;34452;50.796;4.994;2022-11-20T01:09:37;28.50;;;16.43;;
48665;SDS011;34452;50.796;4.994;2022-11-20T01:12:03;29.35;;;17.55;;
48665;SDS011;34452;50.796;4.994;2022-11-20T01:14:29;24.85;;;17.10;;
48665;SDS011;34452;50.796;4.994;2022-11-20T01:16:55;25.40;;;17.30;;
48665;SDS011;34452;50.796;4.994;2022-11-20T01:19:22;27.30;;;17.57;;
48665;SDS011;34452;50.796;4.994;2022-11-20T01:21:49;26.45;;;17.17;;
48665;SDS011;34452;50.796;4.994;2022-11-20T01:24:18;24.33;;;16.23;;
48665;SDS011;34452;50.796;4.994;2022-11-20T01:26:46;30.95;;;18.88;;
48665;SDS011;34452;50.796;4.994;2022-11-20T01:29:21;32.60;;;18.92;;
48665;SDS011;34452;50.796;4.994;2022-11-20T01:31:48;32.05;;;18.27;;
48665;SDS011;34452;50.796;4.994;2022-11-20T01:34:16;31.75;;;16.85;;
48665;SDS011;34452;50.796;4.994;2022-11-20T01:36:43;30.42;;;19.48;;
48665;SDS011;34452;50.796;4.994;2022-11-20T01:39:11;31.65;;;19.58;;
48665;SDS011;34452;50.796;4.994;2022-11-20T01:41:46;29.45;;;18.35;;
48665;SDS011;34452;50.796;4.994;2022-11-20T01:47:12;28.35;;;18.58;;
48665;SDS011;34452;50.796;4.994;2022-11-20T01:49:42;29.60;;;17.77;;
48665;SDS011;34452;50.796;4.994;2022-11-20T01:54:52;33.95;;;19.13;;
48665;SDS011;34452;50.796;4.994;2022-11-20T01:57:31;28.10;;;16.42;;
48665;SDS011;34452;50.796;4.994;2022-11-20T02:00:02;29.23;;;17.90;;
48665;SDS011;34452;50.796;4.994;2022-11-20T02:02:30;28.20;;;17.23;;
48665;SDS011;34452;50.796;4.994;2022-11-20T02:04:57;30.70;;;18.58;;
48665;SDS011;34452;50.796;4.994;2022-11-20T02:07:29;35.22;;;18.77;;
48665;SDS011;34452;50.796;4.994;2022-11-20T02:12:21;37.45;;;19.50;;
48665;SDS011;34452;50.796;4.994;2022-11-20T02:15:06;47.00;;;20.38;;
48665;SDS011;34452;50.796;4.994;2022-11-20T02:17:31;45.17;;;19.92;;
48665;SDS011;34452;50.796;4.994;2022-11-20T02:19:57;48.70;;;22.40;;
48665;SDS011;34452;50.796;4.994;2022-11-20T02:24:56;46.40;;;21.95;;
48665;SDS011;34452;50.796;4.994;2022-11-20T02:27:25;52.97;;;22.00;;
48665;SDS011;34452;50.796;4.994;2022-11-20T02:34:47;42.15;;;20.80;;
48665;SDS011;34452;50.796;4.994;2022-11-20T02:37:13;37.08;;;18.75;;
48665;SDS011;34452;50.796;4.994;2022-11-20T02:39:39;38.63;;;20.25;;
48665;SDS011;34452;50.796;4.994;2022-11-20T02:42:06;50.85;;;23.48;;
48665;SDS011;34452;50.796;4.994;2022-11-20T02:44:32;50.63;;;23.30;;
48665;SDS011;34452;50.796;4.994;2022-11-20T02:46:58;53.90;;;24.80;;
48665;SDS011;34452;50.796;4.994;2022-11-20T02:49:24;46.80;;;20.80;;
48665;SDS011;34452;50.796;4.994;2022-11-20T02:51:50;49.28;;;23.75;;
48665;SDS011;34452;50.796;4.994;2022-11-20T02:54:16;47.72;;;24.95;;
48665;SDS011;34452;50.796;4.994;2022-11-20T02:56:42;50.83;;;23.95;;
48665;SDS011;34452;50.796;4.994;2022-11-20T02:59:08;62.50;;;26.38;;
48665;SDS011;34452;50.796;4.994;2022-11-20T03:01:34;56.33;;;26.25;;
48665;SDS011;34452;50.796;4.994;2022-11-20T03:04:00;56.28;;;26.50;;
48665;SDS011;34452;50.796;4.994;2022-11-20T03:06:25;51.77;;;26.30;;
48665;SDS011;34452;50.796;4.994;2022-11-20T03:08:51;59.47;;;26.83;;
48665;SDS011;34452;50.796;4.994;2022-11-20T03:11:17;71.65;;;28.95;;
48665;SDS011;34452;50.796;4.994;2022-11-20T03:13:42;60.53;;;29.57;;
48665;SDS011;34452;50.796;4.994;2022-11-20T03:16:09;60.37;;;28.10;;
48665;SDS011;34452;50.796;4.994;2022-11-20T03:18:40;56.78;;;27.35;;
48665;SDS011;34452;50.796;4.994;2022-11-20T03:21:07;61.45;;;27.40;;
48665;SDS011;34452;50.796;4.994;2022-11-20T03:23:33;59.63;;;31.98;;
48665;SDS011;34452;50.796;4.994;2022-11-20T03:28:46;49.58;;;25.50;;
48665;SDS011;34452;50.796;4.994;2022-11-20T03:31:16;58.70;;;27.00;;
48665;SDS011;34452;50.796;4.994;2022-11-20T03:33:44;55.70;;;28.45;;
48665;SDS011;34452;50.796;4.994;2022-11-20T03:36:13;69.73;;;29.63;;
48665;SDS011;34452;50.796;4.994;2022-11-20T03:38:40;52.40;;;27.33;;
48665;SDS011;34452;50.796;4.994;2022-11-20T03:41:10;60.25;;;28.70;;
48665;SDS011;34452;50.796;4.994;2022-11-20T03:43:39;64.97;;;28.92;;
48665;SDS011;34452;50.796;4.994;2022-11-20T03:46:05;56.03;;;27.55;;
48665;SDS011;34452;50.796;4.994;2022-11-20T03:48:31;61.90;;;28.40;;
48665;SDS011;34452;50.796;4.994;2022-11-20T03:51:07;59.55;;;29.00;;
48665;SDS011;34452;50.796;4.994;2022-11-20T03:53:33;65.72;;;27.63;;
48665;SDS011;34452;50.796;4.994;2022-11-20T03:55:59;73.82;;;29.77;;
48665;SDS011;34452;50.796;4.994;2022-11-20T03:58:24;63.20;;;28.80;;
48665;SDS011;34452;50.796;4.994;2022-11-20T04:00:50;77.22;;;30.17;;
48665;SDS011;34452;50.796;4.994;2022-11-20T04:03:16;58.50;;;30.08;;
48665;SDS011;34452;50.796;4.994;2022-11-20T04:05:41;61.07;;;30.33;;
48665;SDS011;34452;50.796;4.994;2022-11-20T04:08:07;61.93;;;30.53;;
48665;SDS011;34452;50.796;4.994;2022-11-20T04:10:33;66.80;;;32.63;;
48665;SDS011;34452;50.796;4.994;2022-11-20T04:12:59;64.57;;;26.75;;
48665;SDS011;34452;50.796;4.994;2022-11-20T04:15:24;80.07;;;31.23;;
48665;SDS011;34452;50.796;4.994;2022-11-20T04:17:50;72.40;;;29.40;;
48665;SDS011;34452;50.796;4.994;2022-11-20T04:20:15;67.07;;;29.23;;
48665;SDS011;34452;50.796;4.994;2022-11-20T04:22:41;57.60;;;26.67;;
48665;SDS011;34452;50.796;4.994;2022-11-20T04:25:07;58.10;;;27.47;;
48665;SDS011;34452;50.796;4.994;2022-11-20T04:27:33;65.97;;;28.77;;
48665;SDS011;34452;50.796;4.994;2022-11-20T04:29:59;57.60;;;28.13;;
48665;SDS011;34452;50.796;4.994;2022-11-20T04:32:24;48.80;;;26.43;;
48665;SDS011;34452;50.796;4.994;2022-11-20T04:34:50;60.33;;;27.60;;
48665;SDS011;34452;50.796;4.994;2022-11-20T04:37:16;57.40;;;26.13;;
48665;SDS011;34452;50.796;4.994;2022-11-20T04:39:41;60.07;;;28.13;;
48665;SDS011;34452;50.796;4.994;2022-11-20T04:42:08;59.78;;;28.05;;
48665;SDS011;34452;50.796;4.994;2022-11-20T04:44:53;54.95;;;24.98;;
48665;SDS011;34452;50.796;4.994;2022-11-20T04:47:19;50.85;;;26.35;;
48665;SDS011;34452;50.796;4.994;2022-11-20T04:49:45;53.17;;;25.92;;
48665;SDS011;34452;50.796;4.994;2022-11-20T04:52:10;75.70;;;30.27;;
48665;SDS011;34452;50.796;4.994;2022-11-20T04:54:36;64.32;;;26.40;;
48665;SDS011;34452;50.796;4.994;2022-11-20T04:57:02;47.58;;;24.73;;
48665;SDS011;34452;50.796;4.994;2022-11-20T04:59:28;51.15;;;24.17;;
48665;SDS011;34452;50.796;4.994;2022-11-20T05:01:53;50.00;;;23.10;;
48665;SDS011;34452;50.796;4.994;2022-11-20T05:04:19;52.80;;;25.47;;
48665;SDS011;34452;50.796;4.994;2022-11-20T05:06:44;43.03;;;22.57;;
48665;SDS011;34452;50.796;4.994;2022-11-20T05:09:11;50.15;;;24.92;;
48665;SDS011;34452;50.796;4.994;2022-11-20T05:11:37;49.80;;;23.60;;
48665;SDS011;34452;50.796;4.994;2022-11-20T05:14:03;53.55;;;24.45;;
48665;SDS011;34452;50.796;4.994;2022-11-20T05:16:29;47.58;;;23.73;;
48665;SDS011;34452;50.796;4.994;2022-11-20T05:18:54;47.58;;;22.70;;
48665;SDS011;34452;50.796;4.994;2022-11-20T05:21:21;45.25;;;22.42;;
48665;SDS011;34452;50.796;4.994;2022-11-20T05:23:47;58.40;;;25.95;;
48665;SDS011;34452;50.796;4.994;2022-11-20T05:26:17;51.22;;;25.23;;
48665;SDS011;34452;50.796;4.994;2022-11-20T05:28:44;48.38;;;24.27;;
48665;SDS011;34452;50.796;4.994;2022-11-20T05:31:10;58.47;;;23.48;;
48665;SDS011;34452;50.796;4.994;2022-11-20T05:33:39;52.40;;;23.27;;
48665;SDS011;34452;50.796;4.994;2022-11-20T05:36:06;46.45;;;23.83;;
48665;SDS011;34452;50.796;4.994;2022-11-20T05:38:33;42.22;;;22.70;;
48665;SDS011;34452;50.796;4.994;2022-11-20T05:41:02;45.80;;;22.15;;
48665;SDS011;34452;50.796;4.994;2022-11-20T05:43:32;48.22;;;24.65;;
48665;SDS011;34452;50.796;4.994;2022-11-20T05:45:59;45.80;;;21.85;;
48665;SDS011;34452;50.796;4.994;2022-11-20T05:50:51;39.50;;;20.45;;
48665;SDS011;34452;50.796;4.994;2022-11-20T05:53:17;38.47;;;20.57;;
48665;SDS011;34452;50.796;4.994;2022-11-20T05:55:43;38.67;;;20.33;;
48665;SDS011;34452;50.796;4.994;2022-11-20T05:58:09;41.00;;;20.25;;
48665;SDS011;34452;50.796;4.994;2022-11-20T06:00:34;42.00;;;20.63;;
48665;SDS011;34452;50.796;4.994;2022-11-20T06:03:00;40.47;;;19.75;;
48665;SDS011;34452;50.796;4.994;2022-11-20T06:05:26;42.42;;;19.52;;
48665;SDS011;34452;50.796;4.994;2022-11-20T06:07:52;38.00;;;19.48;;
48665;SDS011;34452;50.796;4.994;2022-11-20T06:10:18;40.38;;;19.75;;
48665;SDS011;34452;50.796;4.994;2022-11-20T06:12:43;46.10;;;21.70;;
48665;SDS011;34452;50.796;4.994;2022-11-20T06:15:09;45.83;;;22.97;;
48665;SDS011;34452;50.796;4.994;2022-11-20T06:17:35;44.92;;;22.05;;
48665;SDS011;34452;50.796;4.994;2022-11-20T06:20:01;41.37;;;22.23;;
48665;SDS011;34452;50.796;4.994;2022-11-20T06:22:26;40.00;;;20.65;;
48665;SDS011;34452;50.796;4.994;2022-11-20T06:24:52;39.03;;;19.63;;
48665;SDS011;34452;50.796;4.994;2022-11-20T06:27:18;44.93;;;21.63;;
48665;SDS011;34452;50.796;4.994;2022-11-20T06:29:43;39.15;;;21.40;;
48665;SDS011;34452;50.796;4.994;2022-11-20T06:32:09;43.65;;;22.40;;
48665;SDS011;34452;50.796;4.994;2022-11-20T06:34:35;44.07;;;20.97;;
48665;SDS011;34452;50.796;4.994;2022-11-20T06:37:01;47.50;;;23.77;;
48665;SDS011;34452;50.796;4.994;2022-11-20T06:39:26;42.00;;;21.93;;
48665;SDS011;34452;50.796;4.994;2022-11-20T06:41:52;46.37;;;22.20;;
48665;SDS011;34452;50.796;4.994;2022-11-20T06:44:17;45.92;;;23.98;;
48665;SDS011;34452;50.796;4.994;2022-11-20T06:46:43;50.67;;;24.00;;
48665;SDS011;34452;50.796;4.994;2022-11-20T06:49:09;46.20;;;23.02;;
48665;SDS011;34452;50.796;4.994;2022-11-20T06:51:34;57.70;;;25.33;;
48665;SDS011;34452;50.796;4.994;2022-11-20T06:54:00;50.70;;;22.43;;
48665;SDS011;34452;50.796;4.994;2022-11-20T06:56:26;55.50;;;25.57;;
48665;SDS011;34452;50.796;4.994;2022-11-20T06:58:52;58.00;;;25.90;;
48665;SDS011;34452;50.796;4.994;2022-11-20T07:01:18;59.67;;;24.53;;
48665;SDS011;34452;50.796;4.994;2022-11-20T07:03:44;61.33;;;25.07;;
48665;SDS011;34452;50.796;4.994;2022-11-20T07:06:09;63.30;;;26.55;;
48665;SDS011;34452;50.796;4.994;2022-11-20T07:08:36;58.28;;;25.95;;
48665;SDS011;34452;50.796;4.994;2022-11-20T07:11:03;56.67;;;25.63;;
48665;SDS011;34452;50.796;4.994;2022-11-20T07:13:30;60.38;;;22.90;;
48665;SDS011;34452;50.796;4.994;2022-11-20T07:16:00;60.15;;;25.40;;
48665;SDS011;34452;50.796;4.994;2022-11-20T07:18:27;57.42;;;26.25;;
48665;SDS011;34452;50.796;4.994;2022-11-20T07:20:53;57.47;;;25.05;;
48665;SDS011;34452;50.796;4.994;2022-11-20T07:23:21;52.38;;;23.73;;
48665;SDS011;34452;50.796;4.994;2022-11-20T07:25:47;58.58;;;25.58;;
48665;SDS011;34452;50.796;4.994;2022-11-20T07:28:12;60.80;;;25.20;;
48665;SDS011;34452;50.796;4.994;2022-11-20T07:30:38;69.32;;;27.13;;
48665;SDS011;34452;50.796;4.994;2022-11-20T07:33:04;65.05;;;26.63;;
48665;SDS011;34452;50.796;4.994;2022-11-20T07:35:30;67.47;;;25.23;;
48665;SDS011;34452;50.796;4.994;2022-11-20T07:37:56;62.83;;;26.38;;
48665;SDS011;34452;50.796;4.994;2022-11-20T07:40:21;61.17;;;25.43;;
48665;SDS011;34452;50.796;4.994;2022-11-20T07:42:51;68.23;;;26.00;;
48665;SDS011;34452;50.796;4.994;2022-11-20T07:45:18;62.30;;;25.88;;
48665;SDS011;34452;50.796;4.994;2022-11-20T07:47:44;57.22;;;25.88;;
48665;SDS011;34452;50.796;4.994;2022-11-20T07:50:10;63.90;;;27.60;;
48665;SDS011;34452;50.796;4.994;2022-11-20T07:52:37;63.22;;;26.27;;
48665;SDS011;34452;50.796;4.994;2022-11-20T07:55:02;65.05;;;27.33;;
48665;SDS011;34452;50.796;4.994;2022-11-20T07:57:28;61.10;;;25.55;;
48665;SDS011;34452;50.796;4.994;2022-11-20T07:59:54;61.72;;;27.23;;
48665;SDS011;34452;50.796;4.994;2022-11-20T08:02:20;62.65;;;26.35;;
48665;SDS011;34452;50.796;4.994;2022-11-20T08:04:46;69.72;;;29.35;;
48665;SDS011;34452;50.796;4.994;2022-11-20T08:07:11;62.93;;;25.47;;
48665;SDS011;34452;50.796;4.994;2022-11-20T08:09:37;66.37;;;27.37;;
48665;SDS011;34452;50.796;4.994;2022-11-20T08:12:03;51.03;;;22.65;;
48665;SDS011;34452;50.796;4.994;2022-11-20T08:14:47;63.25;;;25.40;;
48665;SDS011;34452;50.796;4.994;2022-11-20T08:17:12;70.70;;;27.03;;
48665;SDS011;34452;50.796;4.994;2022-11-20T08:19:38;64.37;;;26.73;;
48665;SDS011;34452;50.796;4.994;2022-11-20T08:22:04;78.28;;;27.02;;
48665;SDS011;34452;50.796;4.994;2022-11-20T08:24:29;64.83;;;23.60;;
48665;SDS011;34452;50.796;4.994;2022-11-20T08:26:57;70.80;;;27.17;;
48665;SDS011;34452;50.796;4.994;2022-11-20T08:29:24;74.88;;;28.35;;
48665;SDS011;34452;50.796;4.994;2022-11-20T08:31:51;62.85;;;23.52;;
48665;SDS011;34452;50.796;4.994;2022-11-20T08:34:17;71.32;;;28.20;;
48665;SDS011;34452;50.796;4.994;2022-11-20T08:36:42;67.83;;;24.83;;
48665;SDS011;34452;50.796;4.994;2022-11-20T08:39:11;54.90;;;23.60;;
48665;SDS011;34452;50.796;4.994;2022-11-20T08:41:37;66.00;;;25.90;;
48665;SDS011;34452;50.796;4.994;2022-11-20T08:44:03;60.37;;;25.20;;
48665;SDS011;34452;50.796;4.994;2022-11-20T08:46:35;62.47;;;26.48;;
48665;SDS011;34452;50.796;4.994;2022-11-20T08:49:05;62.92;;;27.02;;
48665;SDS011;34452;50.796;4.994;2022-11-20T08:51:32;61.67;;;26.05;;
48665;SDS011;34452;50.796;4.994;2022-11-20T08:53:58;77.72;;;27.52;;
48665;SDS011;34452;50.796;4.994;2022-11-20T08:56:24;66.35;;;27.00;;
48665;SDS011;34452;50.796;4.994;2022-11-20T08:58:50;84.90;;;28.38;;
48665;SDS011;34452;50.796;4.994;2022-11-20T09:01:19;69.90;;;26.70;;
48665;SDS011;34452;50.796;4.994;2022-11-20T09:03:46;79.43;;;28.77;;
48665;SDS011;34452;50.796;4.994;2022-11-20T09:06:12;86.95;;;28.55;;
48665;SDS011;34452;50.796;4.994;2022-11-20T09:08:38;81.15;;;27.40;;
48665;SDS011;34452;50.796;4.994;2022-11-20T09:11:04;71.00;;;26.00;;
48665;SDS011;34452;50.796;4.994;2022-11-20T09:13:31;71.85;;;27.65;;
48665;SDS011;34452;50.796;4.994;2022-11-20T09:16:01;74.43;;;27.58;;
48665;SDS011;34452;50.796;4.994;2022-11-20T09:18:30;93.72;;;29.70;;
48665;SDS011;34452;50.796;4.994;2022-11-20T09:21:01;87.30;;;29.38;;
48665;SDS011;34452;50.796;4.994;2022-11-20T09:23:33;86.45;;;28.92;;
48665;SDS011;34452;50.796;4.994;2022-11-20T09:26:04;97.57;;;30.60;;
48665;SDS011;34452;50.796;4.994;2022-11-20T09:28:31;74.38;;;25.77;;
48665;SDS011;34452;50.796;4.994;2022-11-20T09:30:57;82.85;;;28.48;;
48665;SDS011;34452;50.796;4.994;2022-11-20T09:33:23;79.20;;;27.60;;
48665;SDS011;34452;50.796;4.994;2022-11-20T09:35:48;71.50;;;27.30;;
48665;SDS011;34452;50.796;4.994;2022-11-20T09:38:14;105.25;;;32.80;;
48665;SDS011;34452;50.796;4.994;2022-11-20T09:40:51;76.10;;;27.87;;
48665;SDS011;34452;50.796;4.994;2022-11-20T09:46:22;78.13;;;26.98;;
48665;SDS011;34452;50.796;4.994;2022-11-20T09:54:29;71.97;;;26.05;;
48665;SDS011;34452;50.796;4.994;2022-11-20T09:57:00;71.05;;;27.40;;
48665;SDS011;34452;50.796;4.994;2022-11-20T10:01:58;78.90;;;28.88;;
48665;SDS011;34452;50.796;4.994;2022-11-20T10:04:25;63.33;;;25.35;;
48665;SDS011;34452;50.796;4.994;2022-11-20T10:09:43;74.63;;;26.15;;
48665;SDS011;34452;50.796;4.994;2022-11-20T10:26:04;48.88;;;19.27;;
48665;SDS011;34452;50.796;4.994;2022-11-20T10:31:47;42.33;;;19.83;;
48665;SDS011;34452;50.796;4.994;2022-11-20T10:34:26;41.28;;;19.60;;
48665;SDS011;34452;50.796;4.994;2022-11-20T10:37:14;49.47;;;21.48;;
48665;SDS011;34452;50.796;4.994;2022-11-20T10:42:43;45.50;;;19.55;;
48665;SDS011;34452;50.796;4.994;2022-11-20T10:47:42;39.40;;;18.75;;
48665;SDS011;34452;50.796;4.994;2022-11-20T10:50:09;41.08;;;17.80;;
48665;SDS011;34452;50.796;4.994;2022-11-20T11:00:36;23.88;;;11.40;;
48665;SDS011;34452;50.796;4.994;2022-11-20T11:03:02;17.47;;;8.30;;
48665;SDS011;34452;50.796;4.994;2022-11-20T11:08:14;19.23;;;6.93;;
48665;SDS011;34452;50.796;4.994;2022-11-20T11:10:45;12.88;;;4.50;;
48665;SDS011;34452;50.796;4.994;2022-11-20T11:13:21;7.72;;;4.35;;
48665;SDS011;34452;50.796;4.994;2022-11-20T11:15:51;10.90;;;4.25;;
48665;SDS011;34452;50.796;4.994;2022-11-20T11:21:09;12.68;;;4.05;;
48665;SDS011;34452;50.796;4.994;2022-11-20T11:23:39;10.77;;;3.67;;
48665;SDS011;34452;50.796;4.994;2022-11-20T11:26:07;8.40;;;3.30;;
48665;SDS011;34452;50.796;4.994;2022-11-20T11:29:00;10.55;;;3.42;;
48665;SDS011;34452;50.796;4.994;2022-11-20T11:34:05;8.68;;;3.17;;
48665;SDS011;34452;50.796;4.994;2022-11-20T11:36:32;7.43;;;2.70;;
48665;SDS011;34452;50.796;4.994;2022-11-20T11:38:59;3.65;;;2.05;;
48665;SDS011;34452;50.796;4.994;2022-11-20T11:41:28;11.30;;;2.40;;
48665;SDS011;34452;50.796;4.994;2022-11-20T11:44:43;8.75;;;1.85;;
48665;SDS011;34452;50.796;4.994;2022-11-20T11:49:48;6.50;;;2.00;;
48665;SDS011;34452;50.796;4.994;2022-11-20T11:52:25;11.80;;;2.47;;
48665;SDS011;34452;50.796;4.994;2022-11-20T11:54:57;6.97;;;2.00;;
48665;SDS011;34452;50.796;4.994;2022-11-20T12:00:08;9.38;;;1.83;;
48665;SDS011;34452;50.796;4.994;2022-11-20T12:08:19;8.98;;;2.00;;
48665;SDS011;34452;50.796;4.994;2022-11-20T12:15:57;6.47;;;1.80;;
48665;SDS011;34452;50.796;4.994;2022-11-20T12:18:23;5.65;;;1.70;;
48665;SDS011;34452;50.796;4.994;2022-11-20T12:32:00;6.93;;;1.70;;
48665;SDS011;34452;50.796;4.994;2022-11-20T12:34:41;7.65;;;1.50;;
48665;SDS011;34452;50.796;4.994;2022-11-20T12:39:41;7.10;;;1.50;;
48665;SDS011;34452;50.796;4.994;2022-11-20T12:50:53;4.45;;;1.40;;
48665;SDS011;34452;50.796;4.994;2022-11-20T13:01:51;11.10;;;1.48;;
48665;SDS011;34452;50.796;4.994;2022-11-20T13:06:59;8.32;;;1.30;;
48665;SDS011;34452;50.796;4.994;2022-11-20T13:09:31;7.13;;;2.22;;
48665;SDS011;34452;50.796;4.994;2022-11-20T13:17:21;11.48;;;2.70;;
48665;SDS011;34452;50.796;4.994;2022-11-20T13:19:56;5.85;;;1.85;;
48665;SDS011;34452;50.796;4.994;2022-11-20T13:22:24;5.95;;;1.75;;
48665;SDS011;34452;50.796;4.994;2022-11-20T13:24:53;5.03;;;1.80;;
48665;SDS011;34452;50.796;4.994;2022-11-20T13:27:20;4.47;;;1.52;;
48665;SDS011;34452;50.796;4.994;2022-11-20T13:30:01;6.63;;;1.98;;
48665;SDS011;34452;50.796;4.994;2022-11-20T13:32:42;9.00;;;2.05;;
48665;SDS011;34452;50.796;4.994;2022-11-20T13:35:27;6.30;;;1.52;;
48665;SDS011;34452;50.796;4.994;2022-11-20T13:38:14;7.65;;;1.85;;
48665;SDS011;34452;50.796;4.994;2022-11-20T13:40:50;7.40;;;1.77;;
48665;SDS011;34452;50.796;4.994;2022-11-20T13:43:32;4.75;;;1.60;;
48665;SDS011;34452;50.796;4.994;2022-11-20T13:46:04;5.78;;;1.67;;
48665;SDS011;34452;50.796;4.994;2022-11-20T13:48:32;7.70;;;1.40;;
48665;SDS011;34452;50.796;4.994;2022-11-20T13:56:01;5.20;;;1.38;;
48665;SDS011;34452;50.796;4.994;2022-11-20T14:01:26;3.60;;;1.23;;
48665;SDS011;34452;50.796;4.994;2022-11-20T14:03:56;7.28;;;1.45;;
48665;SDS011;34452;50.796;4.994;2022-11-20T14:08:53;3.95;;;1.50;;
48665;SDS011;34452;50.796;4.994;2022-11-20T14:11:20;4.50;;;1.40;;
48665;SDS011;34452;50.796;4.994;2022-11-20T14:14:30;4.30;;;1.20;;
48665;SDS011;34452;50.796;4.994;2022-11-20T14:16:41;7.10;;;1.75;;
48665;SDS011;34452;50.796;4.994;2022-11-20T14:24:20;5.38;;;1.73;;
48665;SDS011;34452;50.796;4.994;2022-11-20T14:26:49;4.13;;;1.65;;
48665;SDS011;34452;50.796;4.994;2022-11-20T14:31:44;7.80;;;1.95;;
48665;SDS011;34452;50.796;4.994;2022-11-20T14:34:15;4.43;;;1.80;;
48665;SDS011;34452;50.796;4.994;2022-11-20T14:36:43;5.90;;;1.95;;
48665;SDS011;34452;50.796;4.994;2022-11-20T14:39:10;5.55;;;1.70;;
48665;SDS011;34452;50.796;4.994;2022-11-20T14:41:52;3.35;;;1.50;;
48665;SDS011;34452;50.796;4.994;2022-11-20T14:44:26;5.70;;;2.40;;
48665;SDS011;34452;50.796;4.994;2022-11-20T14:46:54;5.15;;;1.90;;
48665;SDS011;34452;50.796;4.994;2022-11-20T14:49:20;4.80;;;1.67;;
48665;SDS011;34452;50.796;4.994;2022-11-20T14:51:47;3.25;;;1.50;;
48665;SDS011;34452;50.796;4.994;2022-11-20T14:54:43;4.25;;;1.60;;
48665;SDS011;34452;50.796;4.994;2022-11-20T14:57:21;5.57;;;1.60;;
48665;SDS011;34452;50.796;4.994;2022-11-20T15:02:42;2.67;;;1.30;;
48665;SDS011;34452;50.796;4.994;2022-11-20T15:05:12;2.92;;;1.20;;
48665;SDS011;34452;50.796;4.994;2022-11-20T15:07:39;2.05;;;1.00;;
48665;SDS011;34452;50.796;4.994;2022-11-20T15:12:53;2.90;;;1.20;;
48665;SDS011;34452;50.796;4.994;2022-11-20T15:17:50;1.60;;;1.00;;
48665;SDS011;34452;50.796;4.994;2022-11-20T15:20:16;3.83;;;0.90;;
48665;SDS011;34452;50.796;4.994;2022-11-20T15:22:42;1.67;;;0.90;;
48665;SDS011;34452;50.796;4.994;2022-11-20T15:25:12;6.15;;;1.08;;
48665;SDS011;34452;50.796;4.994;2022-11-20T15:27:42;2.20;;;0.70;;
48665;SDS011;34452;50.796;4.994;2022-11-20T15:30:16;2.08;;;1.13;;
48665;SDS011;34452;50.796;4.994;2022-11-20T15:32:44;1.50;;;0.98;;
48665;SDS011;34452;50.796;4.994;2022-11-20T15:35:11;4.25;;;1.00;;
48665;SDS011;34452;50.796;4.994;2022-11-20T15:37:37;1.88;;;1.00;;
48665;SDS011;34452;50.796;4.994;2022-11-20T15:40:04;3.80;;;1.17;;
48665;SDS011;34452;50.796;4.994;2022-11-20T15:42:31;2.78;;;1.10;;
48665;SDS011;34452;50.796;4.994;2022-11-20T15:44:57;2.90;;;1.27;;
48665;SDS011;34452;50.796;4.994;2022-11-20T15:47:33;1.73;;;1.10;;
48665;SDS011;34452;50.796;4.994;2022-11-20T15:50:00;2.38;;;1.23;;
48665;SDS011;34452;50.796;4.994;2022-11-20T15:52:25;3.33;;;1.00;;
48665;SDS011;34452;50.796;4.994;2022-11-20T15:54:51;1.55;;;1.00;;
48665;SDS011;34452;50.796;4.994;2022-11-20T15:57:17;4.53;;;1.33;;
48665;SDS011;34452;50.796;4.994;2022-11-20T15:59:43;8.77;;;1.90;;
48665;SDS011;34452;50.796;4.994;2022-11-20T16:02:09;3.92;;;1.40;;
48665;SDS011;34452;50.796;4.994;2022-11-20T16:04:36;8.10;;;1.60;;
48665;SDS011;34452;50.796;4.994;2022-11-20T16:07:02;2.28;;;1.58;;
48665;SDS011;34452;50.796;4.994;2022-11-20T16:09:28;4.88;;;1.80;;
48665;SDS011;34452;50.796;4.994;2022-11-20T16:11:54;2.83;;;1.63;;
48665;SDS011;34452;50.796;4.994;2022-11-20T16:14:19;6.40;;;3.03;;
48665;SDS011;34452;50.796;4.994;2022-11-20T16:17:03;5.18;;;1.98;;
48665;SDS011;34452;50.796;4.994;2022-11-20T16:19:29;10.25;;;2.75;;
48665;SDS011;34452;50.796;4.994;2022-11-20T16:21:56;8.00;;;2.57;;
48665;SDS011;34452;50.796;4.994;2022-11-20T16:24:22;5.07;;;2.10;;
48665;SDS011;34452;50.796;4.994;2022-11-20T16:26:48;9.80;;;2.50;;
48665;SDS011;34452;50.796;4.994;2022-11-20T16:29:14;6.53;;;2.23;;
48665;SDS011;34452;50.796;4.994;2022-11-20T16:31:40;8.32;;;2.50;;
48665;SDS011;34452;50.796;4.994;2022-11-20T16:34:06;7.50;;;2.85;;
48665;SDS011;34452;50.796;4.994;2022-11-20T16:36:32;6.78;;;2.42;;
48665;SDS011;34452;50.796;4.994;2022-11-20T16:39:00;8.85;;;2.25;;
48665;SDS011;34452;50.796;4.994;2022-11-20T16:41:28;10.20;;;2.35;;
48665;SDS011;34452;50.796;4.994;2022-11-20T16:43:57;13.40;;;3.25;;
48665;SDS011;34452;50.796;4.994;2022-11-20T16:46:26;11.00;;;2.83;;
48665;SDS011;34452;50.796;4.994;2022-11-20T16:48:54;9.70;;;3.10;;
48665;SDS011;34452;50.796;4.994;2022-11-20T16:51:23;13.10;;;2.47;;
48665;SDS011;34452;50.796;4.994;2022-11-20T16:53:50;13.23;;;3.03;;
48665;SDS011;34452;50.796;4.994;2022-11-20T16:56:16;10.52;;;3.28;;
48665;SDS011;34452;50.796;4.994;2022-11-20T16:58:44;11.05;;;3.35;;
48665;SDS011;34452;50.796;4.994;2022-11-20T17:01:11;13.10;;;3.17;;
48665;SDS011;34452;50.796;4.994;2022-11-20T17:03:39;14.93;;;3.53;;
48665;SDS011;34452;50.796;4.994;2022-11-20T17:06:12;12.43;;;3.65;;
48665;SDS011;34452;50.796;4.994;2022-11-20T17:08:42;9.98;;;3.08;;
48665;SDS011;34452;50.796;4.994;2022-11-20T17:13:35;22.73;;;3.45;;